KBOIKLLJ

Guest
Details From KBOI - Boise Air Terminal (Gowen Field)
To KLLJ - CHALLIS
Flight Number -
Tags generated
Created
Modified
Stats Distance 104 nm / 193 km
Max Altitude 8,000 ft / 2,438 m
Waypoints 3
Social Downloads 0
Likes 0
Share VATSIM

Download

Looking for another format? Having issues loading an existing format? Contact us
Advertisement - Login to hide

Notes

Basic altitude profile: - Ascent Rate: 2500ft/min - Ascent Speed: 250kts - Cruise Altitude: 35000ft - Cruise Speed: 420kts - Descent Rate: 1500ft/min - Descent Speed: 250kts Options: - Use NATs: yes - Use PACOTS: yes - Use low airways: yes - Use high airways: yes

Route

KBOI PLUTO KLLJ

ID Type Via Altitude Latitude Longitude Leg Dist Tot Dist Heading (true) Name
O KBOI APT - 0 ft / 0 m 43.55624˚ -116.21495˚ - 0 nm - Boise Air Terminal (Gowen Field)
PLUTO FIX - 8,000 ft / 2,438 m 43.81092˚ -115.83319˚ 22 nm 22 nm 47° / 47° -
O KLLJ APT - 0 ft / 0 m 44.52292˚ -114.21750˚ 81 nm 104 nm 58° / 59° CHALLIS

Altitude Profile

Advertisement - Login to hide

KBOI

Details ICAO KBOI (BOI)
Name Boise Air Terminal (Gowen Field)
Region United States
Timezone America/Boise (UTC-7.0)
Stats Elevation 2,871 ft / 875 m (AMSL)
Location 43.556241° -116.214953°
Runways 3
Magnetic Variation 13.355° E

METAR

KBOI 141953Z 14006KT 8SM OVC010 M03/M06 A3056 RMK AO2 SNB42E50 SLP378 P0000 T10281056

Decode

TAF

TAF KBOI 141740Z 1418/1518 15006KT 6SM BR OVC008 TEMPO 1418/1420 3SM -SN BR OVC008 FM142000 VRB03KT P6SM OVC010 FM150400 13004KT 4SM BR OVC008

Decode

Departure Runways

ID Width Length Bearing (true) Bearing (mag) Surface Threshold Offset Overrun Length
09 75 ft / 23 m 4,989 ft / 1,521 m 105.05° 91.69° Asphalt 0 ft / 0 m 200 ft / 61 m
10L 150 ft / 46 m 9,981 ft / 3,042 m 115.21° 101.85° Asphalt 0 ft / 0 m 0 ft / 0 m
10R 150 ft / 46 m 9,745 ft / 2,970 m 115.20° 101.84° Asphalt 0 ft / 0 m 200 ft / 61 m
27 75 ft / 23 m 4,989 ft / 1,521 m 285.06° 271.70° Asphalt 0 ft / 0 m 0 ft / 0 m
28L 150 ft / 46 m 9,745 ft / 2,970 m 295.23° 281.87° Asphalt 0 ft / 0 m 200 ft / 61 m
28R 150 ft / 46 m 9,981 ft / 3,042 m 295.23° 281.87° Asphalt 0 ft / 0 m 200 ft / 61 m

KLLJ

Details ICAO KLLJ
Name CHALLIS
Region United States
Timezone America/Boise (UTC-7.0)
Stats Elevation 5,072 ft / 1,546 m (AMSL)
Location 44.522917° -114.217500°
Runways 1
Magnetic Variation 12.896° E

METAR

KLLJ 141955Z AUTO 00000KT 10SM OVC020 M03/M05 A3045 RMK AO2 SLP365 T10281050

Decode

TAF

Not found

Destination Runways

ID Width Length Bearing (true) Bearing (mag) Surface Threshold Offset Overrun Length
16 60 ft / 18 m 4,564 ft / 1,391 m 181.82° 168.92° Asphalt 0 ft / 0 m 0 ft / 0 m
34 60 ft / 18 m 4,564 ft / 1,391 m 1.82° 348.92° Asphalt 0 ft / 0 m 0 ft / 0 m

Popular Alternatives